createdAt,value
2023-03-10T00:03:04.740Z,99.90
2023-03-10T00:07:54.074Z,99.90
2023-03-10T00:12:43.914Z,99.90
2023-03-10T00:17:29.504Z,99.90
2023-03-10T00:22:16.414Z,99.90
2023-03-10T00:27:05.962Z,99.90
2023-03-10T00:31:53.956Z,99.90
2023-03-10T00:36:41.710Z,99.90
2023-03-10T00:41:30.782Z,99.90
2023-03-10T00:46:14.299Z,99.90
2023-03-10T00:50:57.853Z,99.90
2023-03-10T00:55:45.268Z,99.90
2023-03-10T01:00:31.773Z,99.90
2023-03-10T01:05:21.705Z,99.90
2023-03-10T01:10:07.516Z,99.90
2023-03-10T01:14:55.354Z,99.90
2023-03-10T01:19:43.649Z,99.90
2023-03-10T01:24:33.717Z,99.90
2023-03-10T01:29:19.041Z,99.90
2023-03-10T01:34:07.878Z,99.90
2023-03-10T01:38:58.120Z,99.90
2023-03-10T01:43:45.929Z,99.90
2023-03-10T01:48:34.926Z,99.90
2023-03-10T01:53:22.214Z,99.90
2023-03-10T01:58:08.925Z,99.90
2023-03-10T02:03:10.381Z,99.90
2023-03-10T02:07:58.540Z,99.90
2023-03-10T02:12:59.911Z,99.90
2023-03-10T02:17:53.787Z,99.90
2023-03-10T02:22:40.117Z,99.90
2023-03-10T02:27:32.132Z,1.00
2023-03-10T02:32:16.830Z,99.90
2023-03-10T02:37:03.853Z,99.90
2023-03-10T02:41:53.719Z,1.00
2023-03-10T02:46:40.935Z,1.00
2023-03-10T02:51:30.350Z,1.00
2023-03-10T02:56:16.812Z,1.00
2023-03-10T03:01:06.131Z,1.00
2023-03-10T03:06:14.318Z,1.00
2023-03-10T03:11:10.033Z,1.00
2023-03-10T03:16:04.054Z,1.00
2023-03-10T03:20:53.014Z,1.00
2023-03-10T03:25:40.342Z,1.00
2023-03-10T03:30:27.214Z,1.00
2023-03-10T03:35:27.704Z,1.00
2023-03-10T03:40:15.697Z,1.00
2023-03-10T03:45:08.152Z,1.00
2023-03-10T03:49:51.920Z,1.00
2023-03-10T03:54:44.480Z,1.00
2023-03-10T03:59:28.075Z,1.00
2023-03-10T04:04:17.250Z,1.00
2023-03-10T04:09:05.434Z,1.00
2023-03-10T04:13:53.727Z,1.00
2023-03-10T04:18:41.909Z,99.90
2023-03-10T04:23:30.270Z,99.90
2023-03-10T04:28:17.076Z,99.90
2023-03-10T04:33:05.179Z,99.90
2023-03-10T04:37:51.044Z,99.90
2023-03-10T04:42:39.482Z,99.90
2023-03-10T04:47:28.977Z,99.90
2023-03-10T04:52:16.988Z,99.90
2023-03-10T04:57:03.836Z,99.90
2023-03-10T05:01:52.462Z,99.90
2023-03-10T05:06:39.889Z,99.90
2023-03-10T05:11:43.806Z,99.90
2023-03-10T05:16:31.511Z,99.90
2023-03-10T05:21:19.165Z,99.90
2023-03-10T05:26:13.038Z,99.90
2023-03-10T05:30:56.523Z,99.90
2023-03-10T05:35:46.205Z,99.90
2023-03-10T05:40:32.381Z,99.90
2023-03-10T05:45:21.025Z,99.90
2023-03-10T05:50:11.709Z,99.90
2023-03-10T05:54:55.351Z,99.90
2023-03-10T05:59:58.785Z,99.90
2023-03-10T06:04:48.891Z,99.90
2023-03-10T06:09:41.440Z,99.90
2023-03-10T06:14:25.531Z,99.90
2023-03-10T06:19:18.088Z,99.90
2023-03-10T06:24:01.613Z,99.90
2023-03-10T06:28:48.724Z,99.90
2023-03-10T06:33:34.695Z,99.90
2023-03-10T06:38:26.787Z,98.50
2023-03-10T06:43:12.320Z,99.90
2023-03-10T06:48:01.880Z,99.90
2023-03-10T06:53:03.049Z,97.90
2023-03-10T06:57:57.217Z,99.90
2023-03-10T07:02:42.203Z,99.90
2023-03-10T07:07:28.748Z,99.90
2023-03-10T07:12:15.769Z,99.90
2023-03-10T07:17:26.152Z,99.90
2023-03-10T07:22:11.396Z,99.90
2023-03-10T07:26:54.947Z,99.90
2023-03-10T07:31:46.476Z,99.90
2023-03-10T07:36:32.227Z,99.90
2023-03-10T07:41:23.280Z,98.20
2023-03-10T07:46:07.992Z,93.30
2023-03-10T07:50:58.246Z,86.60
2023-03-10T07:55:46.529Z,84.70
2023-03-10T08:00:32.088Z,82.90
2023-03-10T08:05:18.966Z,75.30
2023-03-10T08:10:27.608Z,74.80
2023-03-10T08:15:28.184Z,73.90
2023-03-10T08:20:16.354Z,66.20
2023-03-10T08:25:03.936Z,62.60
2023-03-10T08:29:52.553Z,87.00
2023-03-10T08:34:41.814Z,63.70
2023-03-10T08:39:43.738Z,58.90
2023-03-10T08:44:33.371Z,56.40
2023-03-10T08:49:21.290Z,48.60
2023-03-10T08:54:09.201Z,47.00
2023-03-10T08:58:59.127Z,42.40
2023-03-10T09:03:45.440Z,47.30
2023-03-10T09:08:34.603Z,37.30
2023-03-10T09:13:36.919Z,37.70
2023-03-10T09:18:26.215Z,34.10
2023-03-10T09:28:17.423Z,28.80
2023-03-10T09:38:08.367Z,29.50
2023-03-10T09:43:27.076Z,34.40
2023-03-10T09:48:50.932Z,40.10
2023-03-10T09:53:57.436Z,37.40
2023-03-10T09:59:29.888Z,30.00
2023-03-10T10:04:28.426Z,28.90
2023-03-10T10:09:24.006Z,28.60
2023-03-10T10:14:48.058Z,29.30
2023-03-10T10:19:49.418Z,28.10
2023-03-10T10:24:33.428Z,29.90
2023-03-10T10:29:24.229Z,29.00
2023-03-10T10:34:22.444Z,25.10
2023-03-10T10:39:32.459Z,24.70
2023-03-10T10:44:19.794Z,25.00
2023-03-10T10:49:23.677Z,26.40
2023-03-10T10:54:28.453Z,24.10
2023-03-10T10:59:31.739Z,25.20
2023-03-10T11:04:17.459Z,24.90
2023-03-10T11:09:20.496Z,25.40
2023-03-10T11:14:22.452Z,26.90
2023-03-10T11:19:30.173Z,25.50
2023-03-10T11:24:23.515Z,25.10
2023-03-10T11:29:31.885Z,25.00
2023-03-10T11:34:38.573Z,24.80
2023-03-10T11:39:46.092Z,26.40
2023-03-10T11:44:47.419Z,22.70
2023-03-10T11:49:38.660Z,24.00
2023-03-10T11:54:27.154Z,24.20
2023-03-10T11:59:18.155Z,25.30
2023-03-10T12:04:13.640Z,25.80
2023-03-10T12:09:09.878Z,25.40
2023-03-10T12:13:58.083Z,26.00
2023-03-10T12:18:54.646Z,25.30
2023-03-10T12:24:01.270Z,23.70
2023-03-10T12:29:27.057Z,22.80
2023-03-10T12:34:23.957Z,21.20
2023-03-10T12:39:44.504Z,21.80
2023-03-10T12:44:57.100Z,22.30
2023-03-10T12:50:04.714Z,22.50
2023-03-10T12:55:11.552Z,21.80
2023-03-10T13:00:05.376Z,23.60
2023-03-10T13:04:53.537Z,22.90
2023-03-10T13:09:42.353Z,24.10
2023-03-10T13:14:41.482Z,21.80
2023-03-10T13:19:28.783Z,21.70
2023-03-10T13:24:29.829Z,22.60
2023-03-10T13:29:23.971Z,28.80
2023-03-10T13:34:22.959Z,22.60
2023-03-10T13:39:16.486Z,23.20
2023-03-10T13:44:03.237Z,23.30
2023-03-10T13:48:51.031Z,24.50
2023-03-10T13:53:36.540Z,23.90
2023-03-10T13:58:23.002Z,21.60
2023-03-10T14:03:15.639Z,21.50
2023-03-10T14:08:02.476Z,21.40
2023-03-10T14:12:49.900Z,20.20
2023-03-10T14:17:37.685Z,19.10
2023-03-10T14:22:41.551Z,17.60
2023-03-10T14:27:29.238Z,16.20
2023-03-10T14:32:16.230Z,71.70
2023-03-10T14:37:18.607Z,99.90
2023-03-10T14:42:38.284Z,99.90
2023-03-10T14:47:47.346Z,97.90
2023-03-10T14:52:34.836Z,99.90
2023-03-10T14:57:23.652Z,99.90
2023-03-10T15:07:31.454Z,99.90
2023-03-10T15:12:20.965Z,99.90
2023-03-10T15:18:09.308Z,99.90
2023-03-10T15:23:48.587Z,99.90
2023-03-10T15:33:55.140Z,83.30
2023-03-10T15:38:41.001Z,66.20
2023-03-10T15:43:29.498Z,53.40
2023-03-10T15:48:18.987Z,46.70
2023-03-10T15:53:09.077Z,50.80
2023-03-10T15:57:56.233Z,47.20
2023-03-10T16:02:40.451Z,43.80
2023-03-10T16:07:27.642Z,46.90
2023-03-10T16:12:16.590Z,52.50
2023-03-10T16:17:07.304Z,59.50
2023-03-10T16:21:53.846Z,73.80
2023-03-10T16:26:42.461Z,82.70
2023-03-10T16:31:34.529Z,72.40
2023-03-10T16:37:20.176Z,64.40
2023-03-10T16:42:09.442Z,58.60
2023-03-10T16:46:56.444Z,62.40
2023-03-10T16:51:45.041Z,56.10
2023-03-10T16:56:38.448Z,60.20
2023-03-10T17:01:42.263Z,60.10
2023-03-10T17:06:38.226Z,63.10
2023-03-10T17:11:49.801Z,55.60
2023-03-10T17:16:34.800Z,52.90
2023-03-10T17:21:25.804Z,54.20
2023-03-10T17:26:10.445Z,54.70
2023-03-10T17:30:55.578Z,61.50
2023-03-10T17:35:48.970Z,56.30
2023-03-10T17:40:33.970Z,62.20
2023-03-10T17:45:19.318Z,61.60
2023-03-10T17:50:09.832Z,60.00
2023-03-10T17:54:57.492Z,73.40
2023-03-10T17:59:44.346Z,82.10
2023-03-10T18:04:35.987Z,91.20
2023-03-10T18:09:24.402Z,92.90
2023-03-10T18:14:08.670Z,99.90
2023-03-10T18:18:56.716Z,99.90
2023-03-10T18:23:46.748Z,99.90
2023-03-10T18:28:32.991Z,99.90
2023-03-10T18:33:20.793Z,99.90
2023-03-10T18:38:07.985Z,99.90
2023-03-10T18:43:00.677Z,99.90
2023-03-10T18:47:46.895Z,99.90
2023-03-10T18:52:34.292Z,99.90
2023-03-10T18:57:21.824Z,99.90
2023-03-10T19:02:22.439Z,99.90
2023-03-10T19:07:32.976Z,99.90
2023-03-10T19:12:16.839Z,99.90
2023-03-10T19:17:04.927Z,99.90
2023-03-10T19:21:54.219Z,99.90
2023-03-10T19:26:43.974Z,99.90
2023-03-10T19:31:42.821Z,99.90
2023-03-10T19:36:52.137Z,99.90
2023-03-10T19:41:35.971Z,99.90
2023-03-10T19:46:25.419Z,99.90
2023-03-10T19:51:27.480Z,99.90
2023-03-10T19:56:21.607Z,99.90
2023-03-10T20:36:52.238Z,1.00
2023-03-10T20:42:12.223Z,1.00
2023-03-10T20:52:21.070Z,99.90
2023-03-10T20:57:21.534Z,99.90
2023-03-10T21:07:57.555Z,99.90
2023-03-10T21:12:47.685Z,99.90
2023-03-10T21:17:56.472Z,99.90
2023-03-10T21:29:37.448Z,99.90
2023-03-10T21:41:23.497Z,99.90
2023-03-10T21:47:25.293Z,99.90
2023-03-10T21:53:20.908Z,99.90
2023-03-10T21:58:42.520Z,99.90
2023-03-10T22:09:22.395Z,99.90
2023-03-10T22:14:24.681Z,1.00
2023-03-10T22:19:13.925Z,1.00
2023-03-10T22:24:16.302Z,99.90
2023-03-10T22:29:24.155Z,1.00
2023-03-10T22:34:28.799Z,1.00
2023-03-10T22:39:16.912Z,1.00
2023-03-10T22:44:04.922Z,1.00
2023-03-10T22:48:52.478Z,1.00
2023-03-10T22:53:41.437Z,1.00
2023-03-10T22:58:27.919Z,1.00
2023-03-10T23:03:42.855Z,1.00
2023-03-10T23:09:00.363Z,1.00
2023-03-10T23:13:50.990Z,1.00
2023-03-10T23:19:01.890Z,40.30
2023-03-10T23:29:41.018Z,53.30
2023-03-10T23:44:54.148Z,99.90
2023-03-10T23:50:38.405Z,1.00
2023-03-10T23:56:35.836Z,99.90
